Time;durP1;ratioP1;P1;durP2;ratioP2;P2;SDS_P1;SDS_P2;PMS_P1;PMS_P2;Temp;Humidity;BMP_temperature;BMP_pressure;BME280_temperature;BME280_humidity;BME280_pressure;Samples;Min_cycle;Max_cycle;Signal;HPM_P1;HPM_P2
2020/12/08 00:01:40;;;;;;;585.87;541.90;;;;;;;;;;5017813;28;20201;-74
2020/12/08 00:04:06;;;;;;;639.90;588.77;;;;;;;;;;5015584;28;20197;-74
2020/12/08 00:06:33;;;;;;;806.77;735.33;;;;;;;;;;5017143;28;20186;-74
2020/12/08 00:09:00;;;;;;;639.07;591.77;;;;;;;;;;5018720;28;20319;-75
2020/12/08 00:11:26;;;;;;;554.70;512.00;;;;;;;;;;5020021;28;20187;-75
2020/12/08 00:13:53;;;;;;;707.37;650.37;;;;;;;;;;5020053;28;20188;-75
2020/12/08 00:16:22;;;;;;;856.73;776.13;;;;;;;;;;5018102;28;20224;-74
2020/12/08 00:18:48;;;;;;;534.83;498.40;;;;;;;;;;5016805;28;20191;-73
2020/12/08 00:21:15;;;;;;;880.10;797.07;;;;;;;;;;5017663;28;20193;-72
2020/12/08 00:23:42;;;;;;;700.57;642.47;;;;;;;;;;5017175;28;20202;-72
2020/12/08 00:26:08;;;;;;;525.80;487.87;;;;;;;;;;5016030;28;20489;-72
2020/12/08 00:28:35;;;;;;;866.40;783.60;;;;;;;;;;5017199;28;20362;-72
2020/12/08 00:31:02;;;;;;;658.93;607.03;;;;;;;;;;5016111;28;20192;-73
2020/12/08 00:33:28;;;;;;;751.80;683.47;;;;;;;;;;5016407;28;20194;-73
2020/12/08 00:35:58;;;;;;;606.47;559.93;;;;;;;;;;5017125;28;20282;-71
2020/12/08 00:38:26;;;;;;;668.77;616.77;;;;;;;;;;5013023;28;20253;-73
2020/12/08 00:40:53;;;;;;;654.47;602.23;;;;;;;;;;5014354;28;20219;-72
2020/12/08 00:43:20;;;;;;;664.53;615.07;;;;;;;;;;4998593;28;20464;-75
2020/12/08 00:45:48;;;;;;;578.77;536.37;;;;;;;;;;5016930;28;20214;-75
2020/12/08 00:48:15;;;;;;;707.30;652.33;;;;;;;;;;5015837;28;20217;-77
2020/12/08 00:50:46;;;;;;;752.67;688.47;;;;;;;;;;5016053;28;20218;-75
2020/12/08 00:53:13;;;;;;;681.83;630.63;;;;;;;;;;5011486;28;20943;-74
2020/12/08 00:55:39;;;;;;;712.87;655.83;;;;;;;;;;5011010;28;20199;-75
2020/12/08 00:58:06;;;;;;;814.27;745.00;;;;;;;;;;5017553;28;20715;-75
2020/12/08 01:00:33;;;;;;;630.67;581.93;;;;;;;;;;5017771;28;20639;-75
2020/12/08 01:02:59;;;;;;;727.33;671.80;;;;;;;;;;5019074;28;20833;-76
2020/12/08 01:05:27;;;;;;;834.30;760.20;;;;;;;;;;5015262;28;20222;-75
2020/12/08 01:07:55;;;;;;;805.37;734.80;;;;;;;;;;5015572;28;20262;-72
2020/12/08 01:10:22;;;;;;;808.47;745.27;;;;;;;;;;4999835;28;20191;-73
2020/12/08 01:12:48;;;;;;;757.53;700.17;;;;;;;;;;5011545;28;20231;-72
2020/12/08 01:15:17;;;;;;;631.07;585.13;;;;;;;;;;5020612;28;20199;-72
2020/12/08 01:17:44;;;;;;;620.87;574.80;;;;;;;;;;5016065;28;20190;-71
2020/12/08 01:20:10;;;;;;;592.57;550.80;;;;;;;;;;5011503;28;20211;-71
2020/12/08 01:22:38;;;;;;;739.17;680.00;;;;;;;;;;5015015;28;20198;-71
2020/12/08 01:25:05;;;;;;;624.07;574.53;;;;;;;;;;5000878;28;20290;-71
2020/12/08 01:27:32;;;;;;;652.27;602.20;;;;;;;;;;4998415;28;20194;-70
2020/12/08 01:29:59;;;;;;;725.90;664.50;;;;;;;;;;5016914;28;20305;-72
2020/12/08 01:32:26;;;;;;;617.97;570.30;;;;;;;;;;5017330;28;20917;-71
2020/12/08 01:34:53;;;;;;;781.77;713.77;;;;;;;;;;5014390;28;20187;-72
2020/12/08 01:37:19;;;;;;;540.70;503.03;;;;;;;;;;5017053;28;20280;-71
2020/12/08 01:39:48;;;;;;;530.27;490.53;;;;;;;;;;5018573;28;20209;-71
2020/12/08 13:48:39;;;;;;;412.63;390.10;;;;;;;;;;5116506;27;20672;-68
2020/12/08 13:51:07;;;;;;;449.70;424.30;;;;;;;;;;5095168;28;20189;-68
2020/12/08 13:53:34;;;;;;;254.13;242.03;;;;;;;;;;5094982;28;20188;-69
2020/12/08 13:56:01;;;;;;;365.50;345.87;;;;;;;;;;5099246;28;20198;-69
2020/12/08 13:58:27;;;;;;;259.63;246.43;;;;;;;;;;5095943;28;20190;-69
2020/12/08 14:00:54;;;;;;;206.73;197.03;;;;;;;;;;5090175;28;20185;-68
2020/12/08 14:03:21;;;;;;;163.97;156.67;;;;;;;;;;5092119;28;20185;-69
2020/12/08 14:05:49;;;;;;;253.03;241.40;;;;;;;;;;5094122;28;20189;-69
2020/12/08 14:08:15;;;;;;;253.37;241.50;;;;;;;;;;5095241;28;20221;-68
2020/12/08 14:10:42;;;;;;;253.20;240.73;;;;;;;;;;5094618;28;20200;-69
2020/12/08 14:13:09;;;;;;;436.50;409.60;;;;;;;;;;5093727;28;20230;-70
2020/12/08 14:15:35;;;;;;;270.30;257.07;;;;;;;;;;5101464;28;20272;-68
2020/12/08 14:18:02;;;;;;;352.43;333.10;;;;;;;;;;5096833;28;20213;-69
2020/12/08 14:20:28;;;;;;;242.30;230.07;;;;;;;;;;5095521;28;20531;-66
2020/12/08 14:22:55;;;;;;;264.50;250.90;;;;;;;;;;5099074;28;20174;-67
2020/12/08 14:28:40;;;;;;;329.17;310.57;;;;;;;;;;5134006;28;20271;-68
2020/12/08 14:34:11;;;;;;;320.20;303.30;;;;;;;;;;5136502;28;20225;-67
2020/12/08 14:39:41;;;;;;;227.63;216.50;;;;;;;;;;5137844;28;20194;-68
2020/12/08 14:45:11;;;;;;;318.43;300.67;;;;;;;;;;5137272;28;20219;-67
2020/12/08 14:50:44;;;;;;;333.17;314.53;;;;;;;;;;5138283;28;20210;-68
2020/12/08 14:56:20;;;;;;;338.97;319.97;;;;;;;;;;5138752;28;20176;-68
2020/12/08 15:01:51;;;;;;;292.37;276.33;;;;;;;;;;5116694;28;20209;-68
2020/12/08 15:07:21;;;;;;;394.83;371.57;;;;;;;;;;5099327;28;20233;-68
2020/12/08 15:12:52;;;;;;;296.83;281.27;;;;;;;;;;5099560;28;20185;-69
2020/12/08 15:18:22;;;;;;;407.50;382.47;;;;;;;;;;5099771;28;20746;-69
2020/12/08 15:23:53;;;;;;;345.70;324.47;;;;;;;;;;5098464;28;20185;-69
2020/12/08 15:29:28;;;;;;;280.53;264.73;;;;;;;;;;5099248;28;20216;-69
2020/12/08 15:34:58;;;;;;;193.13;182.70;;;;;;;;;;5098933;28;20278;-68
2020/12/08 15:40:28;;;;;;;212.77;201.07;;;;;;;;;;5098212;28;20192;-68
2020/12/08 15:45:58;;;;;;;353.60;331.73;;;;;;;;;;5119350;28;20195;-69
2020/12/08 15:51:28;;;;;;;287.73;271.43;;;;;;;;;;5118787;28;20318;-69
2020/12/08 15:56:58;;;;;;;227.93;216.30;;;;;;;;;;5119016;28;20206;-68
2020/12/08 16:02:28;;;;;;;305.27;287.93;;;;;;;;;;5108260;28;20189;-69
2020/12/08 16:07:58;;;;;;;266.10;251.63;;;;;;;;;;5098216;28;20227;-69
2020/12/08 16:13:28;;;;;;;368.90;347.30;;;;;;;;;;5096515;28;20246;-69
2020/12/08 16:18:59;;;;;;;266.57;251.03;;;;;;;;;;5099763;28;20188;-69
2020/12/08 16:24:29;;;;;;;316.03;296.87;;;;;;;;;;5095445;28;20186;-69
2020/12/08 16:29:59;;;;;;;306.70;287.80;;;;;;;;;;5094458;28;20733;-67
2020/12/08 16:35:28;;;;;;;374.43;351.30;;;;;;;;;;5094810;28;20647;-69
2020/12/08 16:40:58;;;;;;;322.70;303.83;;;;;;;;;;5094586;28;20193;-69
2020/12/08 16:46:29;;;;;;;492.40;460.90;;;;;;;;;;5093958;28;20200;-66
2020/12/08 16:51:59;;;;;;;418.70;392.37;;;;;;;;;;5094712;28;20227;-67
2020/12/08 16:57:29;;;;;;;322.67;303.47;;;;;;;;;;5093634;28;20192;-67
2020/12/08 17:02:59;;;;;;;218.87;207.57;;;;;;;;;;5088628;28;20185;-67
2020/12/08 17:08:29;;;;;;;186.93;177.40;;;;;;;;;;5092388;28;20228;-66
2020/12/08 17:13:59;;;;;;;157.57;149.10;;;;;;;;;;5093957;28;20202;-68
2020/12/08 17:19:29;;;;;;;134.90;127.93;;;;;;;;;;5094281;28;20185;-68
2020/12/08 17:25:00;;;;;;;133.37;127.03;;;;;;;;;;5094097;28;20185;-67
2020/12/08 17:30:30;;;;;;;102.73;97.70;;;;;;;;;;5093600;28;20190;-67
2020/12/08 17:36:01;;;;;;;193.97;184.33;;;;;;;;;;5094488;28;20656;-68
2020/12/08 17:41:31;;;;;;;224.57;213.60;;;;;;;;;;5094967;28;20180;-68
2020/12/08 17:47:02;;;;;;;177.83;169.47;;;;;;;;;;5093293;28;20253;-68
2020/12/08 17:52:32;;;;;;;267.43;254.57;;;;;;;;;;5093480;28;20181;-68
2020/12/08 17:58:02;;;;;;;181.60;172.57;;;;;;;;;;5093788;28;20255;-68
2020/12/08 18:03:32;;;;;;;187.13;177.80;;;;;;;;;;5094052;28;20185;-68
2020/12/08 18:09:05;;;;;;;132.70;126.43;;;;;;;;;;5093590;28;20197;-67
2020/12/08 18:14:36;;;;;;;235.30;224.77;;;;;;;;;;5094086;28;20182;-67
2020/12/08 18:20:09;;;;;;;210.57;200.80;;;;;;;;;;5090046;28;20660;-67
2020/12/08 18:25:39;;;;;;;251.90;239.33;;;;;;;;;;5092814;28;20177;-66
2020/12/08 18:31:09;;;;;;;306.93;291.63;;;;;;;;;;5093172;28;20322;-67
2020/12/08 18:36:39;;;;;;;186.97;178.33;;;;;;;;;;5097610;28;20183;-67
2020/12/08 18:42:09;;;;;;;251.90;239.80;;;;;;;;;;5109453;28;20541;-66
2020/12/08 18:47:40;;;;;;;336.87;319.60;;;;;;;;;;5083848;28;20248;-66
2020/12/08 18:53:10;;;;;;;360.97;341.87;;;;;;;;;;5096067;28;20269;-67
2020/12/08 18:55:37;;;;;;;318.97;302.90;;;;;;;;;;5089249;23;20291;-77
2020/12/08 18:58:03;;;;;;;327.83;311.30;;;;;;;;;;5001061;28;20348;-77
2020/12/08 19:00:32;;;;;;;294.03;280.03;;;;;;;;;;4999800;28;20205;-77
2020/12/08 19:02:58;;;;;;;243.67;232.97;;;;;;;;;;5000250;28;20693;-78
2020/12/08 19:05:27;;;;;;;299.50;283.87;;;;;;;;;;5001097;28;20196;-77
2020/12/08 19:07:54;;;;;;;278.00;264.33;;;;;;;;;;5002530;28;20341;-76
2020/12/08 19:10:21;;;;;;;253.77;241.53;;;;;;;;;;4999820;28;20200;-74
2020/12/08 19:12:49;;;;;;;199.80;190.50;;;;;;;;;;4998562;28;20209;-74
2020/12/08 19:15:16;;;;;;;186.93;179.00;;;;;;;;;;4999106;28;20276;-75
2020/12/08 19:17:44;;;;;;;269.30;257.07;;;;;;;;;;4999212;28;20653;-74
2020/12/08 19:20:12;;;;;;;182.97;175.03;;;;;;;;;;5002329;28;20928;-74
2020/12/08 19:22:39;;;;;;;277.53;264.50;;;;;;;;;;5001759;28;20197;-75
2020/12/08 19:25:06;;;;;;;269.03;256.17;;;;;;;;;;4999012;28;20382;-75
2020/12/08 19:27:33;;;;;;;230.63;220.50;;;;;;;;;;5003903;28;20252;-75
2020/12/08 19:29:59;;;;;;;292.93;277.97;;;;;;;;;;4999051;28;20205;-74
2020/12/08 19:32:26;;;;;;;287.10;272.53;;;;;;;;;;5000253;28;20194;-75
2020/12/08 19:34:53;;;;;;;296.70;282.47;;;;;;;;;;4998262;28;20249;-74
2020/12/08 19:37:19;;;;;;;292.57;278.70;;;;;;;;;;4999423;28;20185;-73
2020/12/08 19:39:46;;;;;;;392.70;371.93;;;;;;;;;;5000556;28;20896;-75
2020/12/08 19:42:12;;;;;;;299.27;284.50;;;;;;;;;;5000979;28;20280;-75
2020/12/08 19:44:40;;;;;;;348.17;331.00;;;;;;;;;;4997438;28;21240;-73
2020/12/08 19:47:06;;;;;;;349.87;331.43;;;;;;;;;;4993620;28;20561;-74
2020/12/08 19:49:33;;;;;;;345.97;329.47;;;;;;;;;;5000354;28;20367;-65
2020/12/08 19:52:00;;;;;;;388.23;368.27;;;;;;;;;;4998488;28;20185;-65
2020/12/08 19:54:26;;;;;;;363.77;343.93;;;;;;;;;;4995487;28;20232;-65
2020/12/08 19:56:53;;;;;;;436.33;413.67;;;;;;;;;;4998029;28;20232;-64
2020/12/08 19:59:19;;;;;;;471.60;445.10;;;;;;;;;;4999604;28;20191;-63
2020/12/08 20:01:47;;;;;;;595.97;558.43;;;;;;;;;;4998325;28;20980;-65
2020/12/08 20:04:14;;;;;;;606.20;568.60;;;;;;;;;;4998737;28;20193;-64
2020/12/08 20:06:41;;;;;;;554.10;521.57;;;;;;;;;;4999167;28;20553;-64
2020/12/08 20:09:08;;;;;;;529.83;498.57;;;;;;;;;;4999336;28;20186;-64
2020/12/08 20:11:34;;;;;;;471.30;446.90;;;;;;;;;;4996620;28;20284;-63
2020/12/08 20:14:01;;;;;;;624.63;583.00;;;;;;;;;;4999424;28;20185;-63
2020/12/08 20:16:27;;;;;;;537.47;507.30;;;;;;;;;;4997362;28;20196;-65
2020/12/08 20:18:55;;;;;;;588.60;552.93;;;;;;;;;;4997487;28;20189;-64
2020/12/08 20:21:23;;;;;;;657.47;616.87;;;;;;;;;;4999530;28;20207;-64
2020/12/08 20:23:49;;;;;;;605.53;569.23;;;;;;;;;;4997488;28;20880;-64
2020/12/08 20:26:16;;;;;;;605.60;570.80;;;;;;;;;;4995004;28;20189;-64
2020/12/08 20:28:43;;;;;;;704.97;656.50;;;;;;;;;;5011855;28;20768;-64
2020/12/08 20:31:09;;;;;;;631.00;590.30;;;;;;;;;;4994461;28;20190;-64
2020/12/08 20:33:36;;;;;;;686.50;639.00;;;;;;;;;;4995414;28;20189;-73
2020/12/08 20:36:02;;;;;;;633.97;591.13;;;;;;;;;;4997383;28;20185;-72
2020/12/08 20:38:29;;;;;;;567.57;535.57;;;;;;;;;;4996344;28;20255;-74
2020/12/08 20:40:56;;;;;;;656.20;613.93;;;;;;;;;;4996217;28;20197;-72
2020/12/08 20:43:22;;;;;;;610.50;571.37;;;;;;;;;;4998296;28;20201;-73
2020/12/08 20:45:49;;;;;;;602.77;568.10;;;;;;;;;;4999412;28;20200;-72
2020/12/08 20:48:16;;;;;;;734.77;687.07;;;;;;;;;;4997788;28;20215;-72
2020/12/08 20:50:42;;;;;;;757.77;704.83;;;;;;;;;;5000308;28;20234;-72
2020/12/08 20:53:09;;;;;;;739.60;689.07;;;;;;;;;;4997169;28;20212;-71
2020/12/08 20:55:36;;;;;;;776.80;725.97;;;;;;;;;;4999137;28;20177;-72
2020/12/08 20:58:03;;;;;;;814.80;755.83;;;;;;;;;;4998963;28;20200;-72
2020/12/08 21:00:29;;;;;;;851.93;787.83;;;;;;;;;;4993572;28;20193;-72
2020/12/08 21:02:56;;;;;;;790.07;739.00;;;;;;;;;;4997502;28;20189;-73
2020/12/08 21:05:23;;;;;;;767.13;716.20;;;;;;;;;;4996706;28;20196;-73
2020/12/08 21:07:49;;;;;;;770.57;717.60;;;;;;;;;;4996541;28;20216;-72
2020/12/08 21:10:22;;;;;;;659.33;615.40;;;;;;;;;;4997187;28;20212;-72
2020/12/08 21:12:49;;;;;;;795.20;741.80;;;;;;;;;;4997466;28;20189;-72
2020/12/08 21:15:15;;;;;;;819.37;758.90;;;;;;;;;;4999310;28;20189;-72
2020/12/08 21:17:42;;;;;;;676.30;634.20;;;;;;;;;;4997079;28;20189;-68
2020/12/08 21:20:08;;;;;;;753.50;702.63;;;;;;;;;;4998787;28;20300;-67
2020/12/08 21:22:35;;;;;;;778.30;727.93;;;;;;;;;;4992950;28;20676;-68
2020/12/08 21:25:01;;;;;;;795.80;738.67;;;;;;;;;;4998121;28;20617;-67
2020/12/08 21:27:32;;;;;;;726.33;681.17;;;;;;;;;;4999977;28;20312;-72
2020/12/08 21:29:58;;;;;;;726.80;675.97;;;;;;;;;;4992057;28;20194;-65
2020/12/08 21:32:25;;;;;;;788.30;732.07;;;;;;;;;;4990690;28;20243;-70
2020/12/08 21:34:52;;;;;;;669.07;628.47;;;;;;;;;;4996508;28;20533;-70
2020/12/08 21:37:18;;;;;;;802.93;743.33;;;;;;;;;;4995128;28;20189;-70
2020/12/08 21:39:45;;;;;;;721.07;669.43;;;;;;;;;;4997922;28;20189;-71
2020/12/08 21:42:11;;;;;;;794.00;736.33;;;;;;;;;;4998571;28;20625;-65
2020/12/08 21:44:38;;;;;;;719.03;671.67;;;;;;;;;;4997143;28;20259;-73
2020/12/08 21:47:05;;;;;;;698.60;652.53;;;;;;;;;;4998843;28;20226;-66
2020/12/08 21:49:31;;;;;;;742.60;690.30;;;;;;;;;;4998230;28;20192;-73
2020/12/08 21:51:58;;;;;;;666.40;619.93;;;;;;;;;;4997128;28;20181;-72
2020/12/08 21:54:26;;;;;;;771.83;714.03;;;;;;;;;;4997308;28;20200;-65
2020/12/08 21:56:52;;;;;;;746.37;692.77;;;;;;;;;;4994624;28;20228;-64
2020/12/08 21:59:19;;;;;;;624.67;582.87;;;;;;;;;;4994769;28;20191;-65
2020/12/08 22:01:45;;;;;;;798.83;741.13;;;;;;;;;;4995484;28;20220;-66
2020/12/08 22:04:12;;;;;;;744.37;690.67;;;;;;;;;;5001728;28;20212;-66
2020/12/08 22:06:42;;;;;;;804.23;748.70;;;;;;;;;;4994584;28;20616;-71
2020/12/08 22:09:09;;;;;;;772.40;717.90;;;;;;;;;;4995364;28;20195;-71
2020/12/08 22:11:35;;;;;;;726.60;672.53;;;;;;;;;;4995010;28;20983;-70
2020/12/08 22:14:02;;;;;;;672.83;626.00;;;;;;;;;;4996413;28;20189;-71
2020/12/08 22:16:29;;;;;;;703.57;655.10;;;;;;;;;;4999008;28;20216;-66
2020/12/08 22:18:58;;;;;;;891.03;811.20;;;;;;;;;;4995368;28;20659;-66
2020/12/08 22:21:25;;;;;;;716.57;665.80;;;;;;;;;;4996220;28;20199;-76
2020/12/08 22:23:52;;;;;;;648.30;602.37;;;;;;;;;;4996877;28;20326;-66
2020/12/08 22:26:18;;;;;;;732.87;674.90;;;;;;;;;;4998998;28;20189;-66
2020/12/08 22:28:45;;;;;;;720.47;667.30;;;;;;;;;;4994982;28;21064;-66
2020/12/08 22:31:12;;;;;;;733.17;676.80;;;;;;;;;;4997783;28;20188;-67
2020/12/08 22:33:38;;;;;;;814.03;746.23;;;;;;;;;;5001671;28;20189;-65
2020/12/08 22:36:06;;;;;;;734.43;676.70;;;;;;;;;;5001435;28;20195;-66
2020/12/08 22:38:36;;;;;;;877.50;796.90;;;;;;;;;;4997119;28;20234;-66
2020/12/08 22:41:03;;;;;;;689.10;637.00;;;;;;;;;;4997468;28;20187;-66
2020/12/08 22:43:29;;;;;;;837.97;758.10;;;;;;;;;;4997153;28;20262;-66
2020/12/08 22:45:56;;;;;;;661.43;608.23;;;;;;;;;;4991223;28;20185;-66
2020/12/08 22:48:25;;;;;;;688.23;634.97;;;;;;;;;;4999565;28;20228;-66
2020/12/08 22:50:52;;;;;;;598.07;552.00;;;;;;;;;;5000145;28;20210;-66
2020/12/08 22:53:19;;;;;;;569.33;525.57;;;;;;;;;;4996084;28;20190;-66
2020/12/08 22:55:46;;;;;;;460.53;430.93;;;;;;;;;;4998804;28;20700;-78
2020/12/08 22:58:13;;;;;;;681.83;627.00;;;;;;;;;;5002056;28;20199;-75
2020/12/08 23:00:39;;;;;;;593.23;550.83;;;;;;;;;;4994326;28;20260;-71
2020/12/08 23:03:06;;;;;;;847.23;770.23;;;;;;;;;;4997118;28;20188;-76
2020/12/08 23:05:33;;;;;;;602.10;557.17;;;;;;;;;;4996183;28;20192;-75
2020/12/08 23:08:02;;;;;;;846.63;767.87;;;;;;;;;;5002555;28;20216;-76
2020/12/08 23:10:29;;;;;;;809.60;736.83;;;;;;;;;;4996887;28;20578;-75
2020/12/08 23:12:55;;;;;;;618.83;570.40;;;;;;;;;;4995999;28;20197;-75
2020/12/08 23:15:22;;;;;;;818.47;745.10;;;;;;;;;;4998073;28;20717;-75
2020/12/08 23:17:49;;;;;;;814.57;740.10;;;;;;;;;;4997479;28;20188;-75
2020/12/08 23:20:17;;;;;;;746.90;685.87;;;;;;;;;;4995503;28;20193;-74
2020/12/08 23:22:48;;;;;;;749.00;685.93;;;;;;;;;;4995716;28;20200;-75
2020/12/08 23:25:14;;;;;;;887.90;800.77;;;;;;;;;;4996861;28;20200;-73
2020/12/08 23:27:42;;;;;;;859.77;778.10;;;;;;;;;;4996592;28;20734;-72
2020/12/08 23:30:10;;;;;;;738.53;678.90;;;;;;;;;;4997800;28;20199;-75
2020/12/08 23:32:36;;;;;;;789.60;720.00;;;;;;;;;;4996260;28;20661;-75
2020/12/08 23:35:04;;;;;;;869.33;790.27;;;;;;;;;;4992311;28;20184;-75
2020/12/08 23:37:30;;;;;;;758.70;692.33;;;;;;;;;;4995087;28;20273;-72
2020/12/08 23:39:57;;;;;;;819.07;744.53;;;;;;;;;;4996379;28;20307;-73
2020/12/08 23:42:24;;;;;;;883.47;800.07;;;;;;;;;;4993192;28;20307;-74
2020/12/08 23:44:53;;;;;;;922.20;838.40;;;;;;;;;;4996016;28;20206;-73
2020/12/08 23:47:20;;;;;;;690.77;638.80;;;;;;;;;;4996558;28;20281;-74
2020/12/08 23:49:46;;;;;;;730.80;671.17;;;;;;;;;;4997494;28;20300;-73
2020/12/08 23:52:13;;;;;;;723.83;662.43;;;;;;;;;;4998058;28;20189;-73
2020/12/08 23:54:40;;;;;;;730.30;667.47;;;;;;;;;;4997539;28;20235;-73
2020/12/08 23:57:07;;;;;;;612.03;563.67;;;;;;;;;;4999226;28;20295;-73
2020/12/08 23:59:33;;;;;;;626.73;580.33;;;;;;;;;;4997826;28;20197;-72
